Time;durP1;ratioP1;P1;durP2;ratioP2;P2;SDS_P1;SDS_P2;PMS_P1;PMS_P2;Temp;Humidity;BMP_temperature;BMP_pressure;BME280_temperature;BME280_humidity;BME280_pressure;Samples;Min_cycle;Max_cycle;Signal;HPM_P1;HPM_P2
2022/10/14 00:00:09;;;;;;;34.03;20.05;;;;;;;11.17;100.00;101503.00;10374853;28;20066;-69
2022/10/14 00:05:09;;;;;;;28.50;21.98;;;;;;;11.16;100.00;101494.00;10374229;28;20093;-69
2022/10/14 00:10:10;;;;;;;37.17;26.52;;;;;;;11.25;100.00;101486.63;10372823;28;20042;-69
2022/10/14 00:15:10;;;;;;;35.35;28.00;;;;;;;11.38;100.00;101480.53;10373925;28;20112;-69
2022/10/14 00:20:10;;;;;;;48.70;27.73;;;;;;;11.41;100.00;101470.13;10373939;28;20038;-69
2022/10/14 00:25:11;;;;;;;44.67;26.80;;;;;;;11.41;100.00;101451.16;10374881;28;20125;-69
2022/10/14 00:30:11;;;;;;;31.13;25.80;;;;;;;11.40;100.00;101443.22;10375321;28;20037;-69
2022/10/14 00:35:12;;;;;;;35.08;26.80;;;;;;;11.29;100.00;101433.69;10397140;28;20441;-65
2022/10/14 00:40:12;;;;;;;37.25;26.08;;;;;;;11.31;100.00;101439.78;10380980;28;20113;-64
2022/10/14 00:45:14;;;;;;;38.88;27.85;;;;;;;11.39;100.00;101431.53;10379562;28;20038;-65
2022/10/14 00:50:14;;;;;;;44.35;31.08;;;;;;;11.49;100.00;101430.41;10381179;28;20038;-64
2022/10/14 00:55:18;;;;;;;46.47;28.75;;;;;;;11.45;100.00;101418.22;10380743;28;20033;-64
2022/10/14 01:00:18;;;;;;;39.50;29.63;;;;;;;11.45;100.00;101424.50;10379041;28;20421;-64
2022/10/14 01:05:19;;;;;;;39.35;29.10;;;;;;;11.53;100.00;101443.38;10378196;28;20048;-65
2022/10/14 01:10:23;;;;;;;40.58;31.05;;;;;;;11.64;100.00;101440.16;10380884;28;20049;-67
2022/10/14 01:15:38;;;;;;;47.05;31.42;;;;;;;11.69;100.00;101426.03;10378961;28;20083;-64
2022/10/14 01:20:56;;;;;;;40.15;29.83;;;;;;;11.79;100.00;101434.69;10393536;28;20099;-65
2022/10/14 01:26:15;;;;;;;43.95;33.80;;;;;;;11.83;100.00;101432.44;10394951;28;20061;-64
2022/10/14 01:31:17;;;;;;;48.97;30.52;;;;;;;11.83;100.00;101418.88;10378401;28;20084;-65
2022/10/14 01:36:21;;;;;;;41.22;28.75;;;;;;;11.87;100.00;101412.06;10377547;28;20033;-66
2022/10/14 01:41:24;;;;;;;45.33;30.42;;;;;;;11.91;100.00;101401.66;10379071;28;20037;-65
2022/10/14 01:46:24;;;;;;;48.88;29.88;;;;;;;11.95;100.00;101408.38;10376815;28;20529;-65
2022/10/14 01:51:28;;;;;;;38.08;29.10;;;;;;;11.95;100.00;101397.53;10392732;28;20120;-65
2022/10/14 01:56:29;;;;;;;37.50;30.40;;;;;;;11.94;100.00;101391.25;10392911;28;20382;-64
2022/10/14 02:01:30;;;;;;;51.95;31.25;;;;;;;11.99;100.00;101391.50;10393781;28;20041;-66
2022/10/14 02:06:34;;;;;;;54.00;30.50;;;;;;;12.00;100.00;101382.34;10377547;28;20062;-65
2022/10/14 02:11:56;;;;;;;52.47;30.17;;;;;;;12.02;100.00;101382.97;10376938;28;20033;-65
2022/10/14 02:17:30;;;;;;;47.08;32.97;;;;;;;12.05;100.00;101387.16;10377045;28;20041;-65
2022/10/14 02:22:31;;;;;;;45.90;33.35;;;;;;;12.10;100.00;101382.00;10373664;28;20141;-66
2022/10/14 02:27:32;;;;;;;53.05;32.65;;;;;;;12.13;100.00;101367.22;10392063;28;20030;-67
2022/10/14 02:32:32;;;;;;;41.58;30.75;;;;;;;12.17;100.00;101363.88;10391882;28;20038;-65
2022/10/14 02:37:33;;;;;;;48.78;31.33;;;;;;;12.20;100.00;101357.22;10375216;28;20038;-65
2022/10/14 02:42:33;;;;;;;43.53;28.55;;;;;;;12.25;100.00;101354.75;10375652;28;20084;-65
2022/10/14 02:47:33;;;;;;;55.05;31.15;;;;;;;12.28;100.00;101343.50;10375213;28;20032;-66
2022/10/14 02:52:34;;;;;;;45.95;33.03;;;;;;;12.30;100.00;101339.53;10390112;28;20037;-65
2022/10/14 02:57:34;;;;;;;45.28;32.58;;;;;;;12.37;100.00;101334.16;10376008;28;20072;-65
2022/10/14 03:02:35;;;;;;;41.47;31.10;;;;;;;12.42;100.00;101322.72;10374206;28;20478;-66
2022/10/14 03:07:35;;;;;;;49.03;35.95;;;;;;;12.45;100.00;101311.44;10374136;28;20049;-66
2022/10/14 03:12:35;;;;;;;49.03;36.53;;;;;;;12.52;100.00;101317.75;10374019;28;20045;-65
2022/10/14 03:17:36;;;;;;;51.38;37.45;;;;;;;12.53;100.00;101305.84;10375112;28;20041;-65
2022/10/14 03:22:36;;;;;;;58.97;35.90;;;;;;;12.59;100.00;101305.03;10374899;28;20033;-65
2022/10/14 03:27:37;;;;;;;66.78;39.70;;;;;;;12.63;100.00;101303.59;10375734;28;20121;-65
2022/10/14 03:32:37;;;;;;;58.60;40.15;;;;;;;12.66;100.00;101289.59;10372864;28;20053;-64
2022/10/14 03:37:38;;;;;;;58.17;42.10;;;;;;;12.71;100.00;101286.28;10373402;28;20038;-65
2022/10/14 03:42:39;;;;;;;57.67;40.60;;;;;;;12.73;100.00;101285.06;10373780;28;20046;-64
2022/10/14 03:47:39;;;;;;;66.07;42.50;;;;;;;12.75;100.00;101272.09;10388724;28;20033;-65
2022/10/14 03:52:40;;;;;;;61.45;40.40;;;;;;;12.82;100.00;101276.72;10389391;28;20467;-65
2022/10/14 03:57:41;;;;;;;67.20;42.50;;;;;;;12.84;100.00;101261.06;10375165;28;20420;-65
2022/10/14 04:02:41;;;;;;;57.20;37.47;;;;;;;12.83;100.00;101259.34;10373419;28;20038;-65
2022/10/14 04:07:42;;;;;;;74.72;45.25;;;;;;;12.85;100.00;101254.56;10394773;28;20141;-65
2022/10/14 04:12:42;;;;;;;68.50;42.08;;;;;;;12.88;100.00;101256.88;10382136;28;20053;-67
2022/10/14 04:17:43;;;;;;;66.15;41.08;;;;;;;12.90;100.00;101252.91;10382387;28;20077;-68
2022/10/14 04:22:43;;;;;;;68.15;43.47;;;;;;;12.92;100.00;101247.25;10382654;28;20450;-68
2022/10/14 04:27:44;;;;;;;80.47;42.10;;;;;;;12.97;100.00;101239.34;10382644;28;20042;-69
2022/10/14 04:32:45;;;;;;;82.30;41.47;;;;;;;13.00;100.00;101238.94;10305144;28;20050;-65
2022/10/14 04:37:46;;;;;;;78.13;45.88;;;;;;;13.01;100.00;101227.84;10381013;28;20042;-68
2022/10/14 04:42:46;;;;;;;71.53;47.38;;;;;;;13.06;100.00;101226.41;10387073;28;20045;-70
2022/10/14 04:47:46;;;;;;;81.55;49.72;;;;;;;13.08;100.00;101217.00;10384415;28;20033;-70
2022/10/14 04:52:47;;;;;;;63.60;40.05;;;;;;;13.08;100.00;101218.88;10381123;28;20038;-69
2022/10/14 04:57:47;;;;;;;59.58;39.22;;;;;;;13.07;100.00;101206.31;10319714;28;20038;-72
2022/10/14 05:02:47;;;;;;;57.90;37.50;;;;;;;13.10;100.00;101206.75;10379990;28;20362;-72
2022/10/14 05:07:48;;;;;;;51.13;33.60;;;;;;;13.12;100.00;101199.22;10377844;28;20074;-69
2022/10/14 05:12:48;;;;;;;49.72;30.02;;;;;;;13.13;100.00;101197.34;10378413;28;20521;-69
2022/10/14 05:17:49;;;;;;;40.50;30.08;;;;;;;13.17;100.00;101190.44;10376587;28;20514;-68
2022/10/14 05:22:49;;;;;;;40.53;28.73;;;;;;;13.20;100.00;101179.97;10377356;28;20069;-67
2022/10/14 05:27:50;;;;;;;55.20;26.98;;;;;;;13.20;100.00;101169.09;10376392;28;20037;-68
2022/10/14 05:32:50;;;;;;;35.15;23.15;;;;;;;13.21;100.00;101159.09;10376772;28;20037;-68
2022/10/14 05:37:57;;;;;;;27.08;18.90;;;;;;;13.25;100.00;101155.75;10377585;28;20034;-69
2022/10/14 05:42:57;;;;;;;24.83;19.98;;;;;;;13.24;100.00;101136.88;10376232;28;20049;-69
2022/10/14 05:47:57;;;;;;;24.23;17.52;;;;;;;13.30;100.00;101152.41;10376954;28;20390;-69
2022/10/14 05:53:00;;;;;;;34.45;19.85;;;;;;;13.32;100.00;101152.19;10375231;28;20038;-68
2022/10/14 05:58:00;;;;;;;22.25;18.48;;;;;;;13.33;100.00;101145.72;10374682;28;20045;-69
2022/10/14 06:03:01;;;;;;;29.85;21.77;;;;;;;13.36;100.00;101154.28;10391155;28;20036;-67
2022/10/14 06:08:01;;;;;;;28.10;19.85;;;;;;;13.35;100.00;101151.78;10338537;28;1075983;-67
2022/10/14 06:13:01;;;;;;;26.02;20.85;;;;;;;13.36;100.00;101143.41;10377723;28;20042;-69
2022/10/14 06:18:02;;;;;;;22.80;18.65;;;;;;;13.40;100.00;101130.22;10375704;28;20037;-69
2022/10/14 06:23:03;;;;;;;25.23;20.27;;;;;;;13.43;100.00;101129.78;10377046;28;20418;-69
2022/10/14 06:28:04;;;;;;;34.50;23.98;;;;;;;13.46;100.00;101132.94;10375546;28;20038;-67
2022/10/14 06:33:04;;;;;;;36.25;26.00;;;;;;;13.47;100.00;101136.50;10374965;28;20121;-68
2022/10/14 06:38:04;;;;;;;41.85;27.60;;;;;;;13.48;100.00;101117.25;10374727;28;20042;-67
2022/10/14 06:43:05;;;;;;;56.88;30.80;;;;;;;13.52;100.00;101119.53;10376440;28;20034;-66
2022/10/14 06:48:05;;;;;;;44.95;29.08;;;;;;;13.57;100.00;101112.41;10374350;28;20418;-67
2022/10/14 06:53:06;;;;;;;49.25;31.65;;;;;;;13.66;100.00;101116.59;10376776;28;20052;-67
2022/10/14 06:58:06;;;;;;;49.60;31.40;;;;;;;13.73;100.00;101108.41;10376958;28;20068;-66
2022/10/14 07:03:07;;;;;;;48.15;32.05;;;;;;;13.78;100.00;101111.31;10376662;28;20160;-67
2022/10/14 07:08:07;;;;;;;51.42;31.67;;;;;;;13.83;100.00;101103.34;10375134;28;20050;-68
2022/10/14 07:13:07;;;;;;;53.60;31.20;;;;;;;13.88;100.00;101106.28;10375328;28;20057;-67
2022/10/14 07:18:08;;;;;;;47.85;31.05;;;;;;;13.94;100.00;101099.97;10390108;28;20037;-67
2022/10/14 07:23:08;;;;;;;43.80;29.13;;;;;;;13.98;100.00;101105.00;10375276;28;20458;-68
2022/10/14 07:28:09;;;;;;;49.40;28.15;;;;;;;13.99;100.00;101101.22;10373092;28;20057;-67
2022/10/14 07:33:09;;;;;;;44.70;29.08;;;;;;;14.05;100.00;101106.63;10373312;28;20030;-67
2022/10/14 07:38:09;;;;;;;35.58;26.48;;;;;;;14.10;100.00;101108.69;10357761;28;20041;-66
2022/10/14 07:43:10;;;;;;;38.67;27.52;;;;;;;14.12;100.00;101103.88;10373783;28;20040;-68
2022/10/14 07:48:10;;;;;;;32.92;26.77;;;;;;;14.15;100.00;101101.56;10374055;28;20065;-69
2022/10/14 07:53:11;;;;;;;34.95;28.33;;;;;;;14.17;100.00;101102.19;10374942;28;20030;-67
2022/10/14 07:58:11;;;;;;;41.50;29.63;;;;;;;14.17;100.00;101099.47;10389991;28;20470;-67
2022/10/14 08:03:11;;;;;;;42.13;27.60;;;;;;;14.22;100.00;101104.25;10388625;28;20033;-67
2022/10/14 08:08:12;;;;;;;34.35;24.30;;;;;;;14.19;100.00;101100.06;10388945;28;20061;-69
2022/10/14 08:13:12;;;;;;;28.02;21.42;;;;;;;14.24;100.00;101104.88;10373419;28;20054;-70
2022/10/14 08:18:13;;;;;;;26.50;20.45;;;;;;;14.22;100.00;101096.06;10373399;28;20037;-68
2022/10/14 08:23:13;;;;;;;29.35;20.13;;;;;;;14.23;100.00;101097.75;10373391;28;20049;-68
2022/10/14 08:28:14;;;;;;;27.80;19.80;;;;;;;14.28;100.00;101095.22;10372631;28;20394;-68
2022/10/14 08:33:14;;;;;;;24.83;18.42;;;;;;;14.31;100.00;101097.50;10373048;28;20121;-67
2022/10/14 08:38:15;;;;;;;22.08;16.27;;;;;;;14.32;100.00;101090.16;10372444;28;20045;-68
2022/10/14 08:43:36;;;;;;;23.70;17.42;;;;;;;14.36;100.00;101092.25;10372732;28;20037;-68
2022/10/14 08:48:36;;;;;;;24.00;15.60;;;;;;;14.41;100.00;101084.22;10371617;28;20022;-67
2022/10/14 08:53:42;;;;;;;25.27;16.35;;;;;;;14.43;100.00;101084.88;10376420;28;20430;-68
2022/10/14 08:58:48;;;;;;;16.35;14.45;;;;;;;14.45;100.00;101075.63;10395042;28;20033;-67
2022/10/14 09:03:50;;;;;;;18.13;12.80;;;;;;;14.57;100.00;101080.19;10379247;28;20108;-68
2022/10/14 09:08:53;;;;;;;13.40;12.00;;;;;;;14.68;100.00;101073.22;10378106;28;20140;-67
2022/10/14 09:13:58;;;;;;;14.30;11.32;;;;;;;14.70;100.00;101070.25;10378666;28;20038;-67
2022/10/14 09:19:00;;;;;;;22.27;14.02;;;;;;;14.71;100.00;101067.31;10394049;28;20033;-66
2022/10/14 09:24:08;;;;;;;14.88;12.23;;;;;;;14.72;100.00;101058.09;10377822;28;20108;-67
2022/10/14 09:29:23;;;;;;;14.95;12.13;;;;;;;14.75;100.00;101056.81;10377313;28;20022;-67
2022/10/14 09:34:47;;;;;;;17.35;10.90;;;;;;;14.83;100.00;101068.25;10393615;28;20025;-67
2022/10/14 09:39:48;;;;;;;13.27;11.90;;;;;;;14.85;100.00;101073.50;10378895;28;20068;-67
2022/10/14 09:45:06;;;;;;;14.43;12.07;;;;;;;14.76;100.00;101063.91;10377646;28;20022;-68
2022/10/14 09:50:08;;;;;;;13.75;12.35;;;;;;;14.74;100.00;101061.44;10376508;28;20083;-68
2022/10/14 09:55:17;;;;;;;12.00;10.75;;;;;;;14.78;100.00;101067.28;10360923;28;20169;-67
2022/10/14 10:00:27;;;;;;;14.02;11.50;;;;;;;14.79;100.00;101050.69;10392691;28;20030;-67
2022/10/14 10:05:30;;;;;;;12.57;10.95;;;;;;;14.80;100.00;101068.69;10374258;28;20038;-67
2022/10/14 10:10:30;;;;;;;15.73;12.50;;;;;;;14.80;100.00;101065.97;10391991;28;20057;-67
2022/10/14 10:15:30;;;;;;;12.73;10.90;;;;;;;14.80;100.00;101063.25;10392239;28;20377;-68
2022/10/14 10:20:32;;;;;;;13.32;11.88;;;;;;;14.88;100.00;101053.97;10360364;28;20409;-68
2022/10/14 10:25:32;;;;;;;14.73;11.35;;;;;;;14.87;100.00;101053.16;10390576;28;20040;-67
2022/10/14 10:30:40;;;;;;;14.52;10.82;;;;;;;14.86;100.00;101056.06;10376405;28;20038;-66
2022/10/14 10:35:43;;;;;;;11.15;9.68;;;;;;;14.89;100.00;101042.00;10374873;28;20469;-66
2022/10/14 10:41:15;;;;;;;14.40;11.38;;;;;;;14.93;100.00;101040.50;10376639;28;20472;-67
2022/10/14 10:46:43;;;;;;;13.60;11.73;;;;;;;15.18;100.00;101045.09;10374809;28;20026;-67
2022/10/14 10:51:59;;;;;;;13.65;12.25;;;;;;;15.24;100.00;101046.94;10375499;28;20375;-66
2022/10/14 10:57:08;;;;;;;13.85;12.38;;;;;;;15.45;100.00;101045.69;10374625;28;20105;-67
2022/10/14 11:02:33;;;;;;;14.35;12.77;;;;;;;15.64;100.00;101038.34;10358194;28;20065;-66
2022/10/14 11:13:05;;;;;;;14.50;12.85;;;;;;;15.33;100.00;101013.69;10374918;28;20156;-68
2022/10/14 11:18:45;;;;;;;18.80;13.45;;;;;;;15.34;100.00;101023.53;10389286;28;20030;-68
2022/10/14 11:24:04;;;;;;;18.60;13.07;;;;;;;15.33;100.00;101013.69;10374451;28;20118;-67
2022/10/14 11:29:30;;;;;;;14.73;10.95;;;;;;;15.49;100.00;100998.59;10388948;28;20029;-67
2022/10/14 11:34:49;;;;;;;14.38;11.23;;;;;;;16.06;100.00;100995.59;10372561;28;20426;-66
2022/10/14 11:39:55;;;;;;;14.13;12.05;;;;;;;16.65;100.00;100980.19;10374200;28;20069;-66
2022/10/14 11:45:16;;;;;;;11.48;9.57;;;;;;;16.69;100.00;100975.91;10373873;28;20022;-67
2022/10/14 11:50:17;;;;;;;8.32;7.28;;;;;;;16.82;100.00;100963.97;10367757;28;20046;-66
2022/10/14 11:55:27;;;;;;;8.20;4.75;;;;;;;16.81;100.00;100945.84;10372439;28;20109;-66
2022/10/14 12:00:28;;;;;;;6.38;4.95;;;;;;;17.33;100.00;100947.84;10357925;28;20041;-66
2022/10/14 12:05:40;;;;;;;8.20;5.13;;;;;;;18.25;100.00;100945.03;10373002;28;20045;-66
2022/10/14 12:10:45;;;;;;;6.18;5.10;;;;;;;19.58;100.00;100936.00;10372303;28;20057;-65
2022/10/14 12:15:48;;;;;;;2.85;2.63;;;;;;;19.99;100.00;100952.97;10356733;28;20152;-66
2022/10/14 12:20:54;;;;;;;2.47;2.30;;;;;;;20.43;100.00;100950.09;10355717;28;20084;-66
2022/10/14 12:26:05;;;;;;;2.10;1.92;;;;;;;19.91;100.00;100950.69;10373937;28;20022;-64
2022/10/14 12:31:37;;;;;;;2.25;2.15;;;;;;;18.60;100.00;100946.66;10366195;28;20034;-65
2022/10/14 12:36:38;;;;;;;2.08;1.98;;;;;;;18.72;100.00;100947.44;10380304;28;20493;-65
2022/10/14 12:41:38;;;;;;;8.52;2.63;;;;;;;20.03;100.00;100947.78;10363752;28;20116;-65
2022/10/14 12:46:42;;;;;;;2.08;1.92;;;;;;;20.80;100.00;100946.56;10379299;28;20052;-65
2022/10/14 12:51:56;;;;;;;2.85;2.10;;;;;;;21.11;100.00;100934.63;10378634;28;20030;-65
2022/10/14 12:57:01;;;;;;;3.00;2.10;;;;;;;21.72;100.00;100930.53;10363103;28;20033;-65
2022/10/14 13:02:22;;;;;;;4.13;1.63;;;;;;;21.09;100.00;100933.25;10378187;28;20450;-64
2022/10/14 13:07:27;;;;;;;4.35;1.70;;;;;;;19.70;100.00;100933.97;10379628;28;20026;-64
2022/10/14 13:12:30;;;;;;;2.60;1.90;;;;;;;19.19;100.00;100944.31;10378722;28;20053;-64
2022/10/14 13:17:45;;;;;;;1.83;1.73;;;;;;;18.94;100.00;100943.94;10377983;28;20430;-65
2022/10/14 13:22:48;;;;;;;4.55;2.78;;;;;;;18.74;100.00;100950.78;10377502;28;20034;-64
2022/10/14 13:27:55;;;;;;;2.83;2.25;;;;;;;18.67;100.00;100952.84;10377658;28;20033;-64
2022/10/14 13:32:58;;;;;;;2.22;1.83;;;;;;;18.62;100.00;100950.00;10379006;28;20040;-64
2022/10/14 13:38:05;;;;;;;2.10;1.95;;;;;;;18.52;100.00;100941.63;10361575;28;20041;-65
2022/10/14 13:43:16;;;;;;;6.07;1.38;;;;;;;18.62;100.00;100935.47;10377984;28;20539;-64
2022/10/14 13:48:28;;;;;;;5.28;2.22;;;;;;;18.34;100.00;100927.06;10376978;28;20438;-64
2022/10/14 13:53:28;;;;;;;4.07;1.77;;;;;;;18.09;100.00;100929.34;10376838;28;20030;-65
2022/10/14 13:58:29;;;;;;;1.48;1.40;;;;;;;17.65;100.00;100915.38;10376146;28;20057;-64
2022/10/14 14:03:36;;;;;;;1.90;1.80;;;;;;;17.21;100.00;100920.50;10378777;28;20424;-64
2022/10/14 14:08:46;;;;;;;2.53;1.65;;;;;;;16.97;100.00;100922.41;10360995;28;20050;-64
2022/10/14 14:14:04;;;;;;;1.85;1.75;;;;;;;17.14;100.00;100920.63;10376535;28;20365;-65
2022/10/14 14:19:04;;;;;;;2.78;1.95;;;;;;;17.06;100.00;100931.94;10344938;28;20033;-65
2022/10/14 14:24:13;;;;;;;1.90;1.45;;;;;;;16.98;100.00;100920.53;10360498;28;20041;-64
2022/10/14 14:29:16;;;;;;;2.28;1.73;;;;;;;16.92;100.00;100920.41;10359528;28;20084;-65
2022/10/14 14:34:18;;;;;;;1.83;1.73;;;;;;;16.99;100.00;100908.53;10359193;28;20466;-64
2022/10/14 14:39:24;;;;;;;2.15;1.75;;;;;;;17.01;100.00;100917.34;10359558;28;20026;-65
2022/10/14 14:44:26;;;;;;;7.57;2.57;;;;;;;16.91;100.00;100907.81;10374743;28;20037;-65
2022/10/14 14:49:30;;;;;;;1.90;1.80;;;;;;;16.86;100.00;100906.88;10357222;28;20068;-66
2022/10/14 14:54:31;;;;;;;2.33;2.22;;;;;;;16.69;100.00;100896.63;10341579;28;20033;-64
2022/10/14 14:59:35;;;;;;;2.08;1.98;;;;;;;16.46;100.00;100907.53;10374732;28;20034;-65
2022/10/14 15:04:35;;;;;;;5.90;2.30;;;;;;;16.24;100.00;100899.91;10375519;28;20116;-65
2022/10/14 15:09:37;;;;;;;10.18;2.25;;;;;;;16.23;100.00;100895.50;10374150;28;20065;-63
2022/10/14 15:14:48;;;;;;;1.85;1.75;;;;;;;16.17;100.00;100885.50;10373900;28;20343;-64
2022/10/14 15:19:48;;;;;;;3.95;2.50;;;;;;;16.07;100.00;100881.69;10374013;28;20033;-64
2022/10/14 15:25:12;;;;;;;2.92;2.72;;;;;;;16.02;100.00;100874.22;10375192;28;20037;-64
2022/10/14 15:30:22;;;;;;;3.15;1.85;;;;;;;15.86;100.00;100877.59;10360391;28;20369;-64
2022/10/14 15:35:22;;;;;;;7.90;2.65;;;;;;;15.74;100.00;100870.22;10361872;28;20057;-64
2022/10/14 15:40:30;;;;;;;4.57;2.60;;;;;;;15.70;100.00;100862.75;10357310;28;20439;-64
2022/10/14 15:45:30;;;;;;;3.78;3.28;;;;;;;15.68;100.00;100868.41;10372758;28;20030;-64
2022/10/14 15:50:30;;;;;;;9.02;2.90;;;;;;;15.59;100.00;100864.31;10374421;28;20068;-65
2022/10/14 15:55:34;;;;;;;9.55;3.50;;;;;;;15.51;100.00;100857.28;10356130;28;20382;-64
2022/10/14 16:00:34;;;;;;;6.07;3.15;;;;;;;15.40;100.00;100860.78;10378002;28;20030;-64
2022/10/14 16:05:37;;;;;;;4.35;3.13;;;;;;;15.33;100.00;100860.06;10381622;28;20033;-65
2022/10/14 16:10:37;;;;;;;4.18;3.55;;;;;;;15.31;100.00;100851.25;10383091;28;20050;-64
2022/10/14 16:15:54;;;;;;;5.80;3.50;;;;;;;15.19;100.00;100859.41;10381953;28;20061;-64
2022/10/14 16:20:54;;;;;;;6.70;3.95;;;;;;;15.02;100.00;100842.81;10365363;28;20043;-64
2022/10/14 16:25:54;;;;;;;4.50;4.10;;;;;;;14.87;100.00;100856.84;10383370;28;20034;-64
2022/10/14 16:30:55;;;;;;;4.60;3.47;;;;;;;14.73;100.00;100849.84;10380402;28;20041;-64
2022/10/14 16:35:55;;;;;;;3.65;3.22;;;;;;;14.64;100.00;100851.19;10380714;28;20038;-65
2022/10/14 16:41:00;;;;;;;5.45;4.40;;;;;;;14.60;100.00;100859.00;10362896;28;20506;-64
2022/10/14 16:46:02;;;;;;;10.00;3.47;;;;;;;14.54;100.00;100851.72;10380256;28;20034;-64
2022/10/14 16:51:02;;;;;;;4.60;3.88;;;;;;;14.48;100.00;100852.59;10380235;28;20026;-63
2022/10/14 16:56:51;;;;;;;4.63;4.20;;;;;;;14.44;100.00;100845.94;10380112;28;20472;-64
2022/10/14 17:01:24;;;;;;;9.80;4.63;;;;;;;14.38;100.00;100846.81;10381720;28;20038;-64
2022/10/14 17:06:24;;;;;;;5.30;4.63;;;;;;;14.32;100.00;100840.38;10380186;28;20045;-64
2022/10/14 17:11:28;;;;;;;7.10;5.25;;;;;;;14.26;100.00;100840.44;10377901;28;20510;-64
2022/10/14 17:16:28;;;;;;;5.45;4.78;;;;;;;14.21;100.00;100835.66;10380310;28;20418;-65
2022/10/14 17:21:29;;;;;;;15.77;8.90;;;;;;;14.16;100.00;100849.94;10362175;28;20041;-64
2022/10/14 17:26:30;;;;;;;13.20;7.40;;;;;;;14.12;100.00;100856.88;10377159;28;20133;-64
2022/10/14 17:31:30;;;;;;;7.43;6.32;;;;;;;14.09;100.00;100864.66;10379202;28;20038;-64
2022/10/14 17:36:31;;;;;;;10.80;7.25;;;;;;;14.07;100.00;100856.75;10378886;28;20160;-64
2022/10/14 17:41:31;;;;;;;6.45;5.75;;;;;;;14.05;100.00;100871.63;10378621;28;20038;-64
2022/10/14 17:46:32;;;;;;;12.90;7.68;;;;;;;14.02;100.00;100859.28;10379799;28;20037;-64
2022/10/14 17:51:33;;;;;;;8.45;6.85;;;;;;;14.02;100.00;100851.13;10379108;28;20030;-64
2022/10/14 17:56:34;;;;;;;11.07;8.43;;;;;;;14.01;100.00;100841.28;10377906;28;20120;-64
2022/10/14 18:01:34;;;;;;;10.55;9.43;;;;;;;13.96;100.00;100830.22;10376655;28;20068;-64
2022/10/14 18:06:36;;;;;;;15.45;9.65;;;;;;;13.89;100.00;100834.88;10377714;28;20033;-64
2022/10/14 18:11:41;;;;;;;14.48;11.65;;;;;;;13.83;100.00;100827.59;10378129;28;20375;-64
2022/10/14 18:16:42;;;;;;;19.33;11.80;;;;;;;13.75;100.00;100823.25;10378872;28;20044;-64
2022/10/14 18:21:43;;;;;;;16.45;10.57;;;;;;;13.69;100.00;100824.16;10376269;28;20041;-64
2022/10/14 18:26:43;;;;;;;21.52;12.90;;;;;;;13.66;100.00;100822.69;10375910;28;20037;-63
2022/10/14 18:31:44;;;;;;;19.70;11.02;;;;;;;13.67;100.00;100823.53;10378840;28;20355;-64
2022/10/14 18:36:44;;;;;;;14.80;12.93;;;;;;;13.62;100.00;100818.72;10376094;28;20053;-64
2022/10/14 18:41:45;;;;;;;14.93;12.43;;;;;;;13.57;100.00;100834.06;10375883;28;20044;-63
2022/10/14 18:46:46;;;;;;;16.02;12.18;;;;;;;13.55;100.00;100839.69;10376021;28;20073;-64
2022/10/14 18:51:46;;;;;;;12.77;11.50;;;;;;;13.51;100.00;100819.44;10375431;28;20084;-65
2022/10/14 18:56:47;;;;;;;18.92;14.88;;;;;;;13.50;100.00;100815.06;10376034;28;20529;-63
2022/10/14 19:01:50;;;;;;;24.92;16.20;;;;;;;13.42;100.00;100818.84;10375119;28;20145;-63
2022/10/14 19:06:51;;;;;;;18.90;12.77;;;;;;;13.37;100.00;100815.13;10390957;28;20493;-63
2022/10/14 19:11:51;;;;;;;16.23;13.35;;;;;;;13.32;100.00;100820.41;10390056;28;20069;-63
2022/10/14 19:16:51;;;;;;;32.58;14.68;;;;;;;13.29;100.00;100813.50;10390922;28;20147;-63
2022/10/14 19:21:55;;;;;;;26.30;16.20;;;;;;;13.22;100.00;100815.38;10374367;28;20029;-63
2022/10/14 19:26:55;;;;;;;19.27;14.63;;;;;;;13.15;100.00;100825.47;10374700;28;20036;-64
2022/10/14 19:31:56;;;;;;;32.10;19.08;;;;;;;13.09;100.00;100824.44;10373654;28;20367;-64
2022/10/14 19:36:58;;;;;;;25.75;18.13;;;;;;;13.02;100.00;100818.22;10373874;28;20042;-65
2022/10/14 19:41:59;;;;;;;29.73;17.23;;;;;;;12.98;100.00;100814.22;10373942;28;20104;-64
2022/10/14 19:46:59;;;;;;;23.42;18.02;;;;;;;13.00;100.00;100815.69;10374342;28;20092;-63
2022/10/14 19:52:00;;;;;;;27.75;19.88;;;;;;;13.01;100.00;100795.59;10374348;28;20042;-64
2022/10/14 19:57:00;;;;;;;24.08;18.33;;;;;;;13.05;100.00;100809.63;10389348;28;20038;-64
2022/10/14 20:02:00;;;;;;;19.75;16.00;;;;;;;13.07;100.00;100798.53;10376926;28;20462;-65
2022/10/14 20:07:01;;;;;;;26.48;16.42;;;;;;;13.10;100.00;100798.09;10374313;28;20080;-65
2022/10/14 20:12:01;;;;;;;22.92;15.73;;;;;;;13.11;100.00;100783.44;10374901;28;20089;-64
2022/10/14 20:17:02;;;;;;;27.80;14.65;;;;;;;13.15;100.00;100796.41;10372549;28;20125;-65
2022/10/14 20:22:03;;;;;;;16.25;13.05;;;;;;;13.19;100.00;100791.34;10373706;28;20026;-63
2022/10/14 20:27:03;;;;;;;16.08;12.60;;;;;;;13.20;100.00;100788.41;10373342;28;20033;-64
2022/10/14 20:32:04;;;;;;;18.00;11.70;;;;;;;13.26;100.00;100779.41;10373343;28;20049;-64
2022/10/14 20:37:04;;;;;;;16.83;10.98;;;;;;;13.32;100.00;100793.19;10373374;28;20042;-66
2022/10/14 20:42:06;;;;;;;16.77;9.38;;;;;;;13.34;100.00;100782.94;10374842;28;20050;-63
2022/10/14 20:47:08;;;;;;;23.65;10.13;;;;;;;13.36;100.00;100781.66;10373343;28;20033;-64
2022/10/14 20:52:08;;;;;;;12.88;8.48;;;;;;;13.26;100.00;100779.41;10394972;28;20156;-64
2022/10/14 20:57:09;;;;;;;17.65;9.85;;;;;;;13.08;100.00;100779.28;10380557;28;20033;-63
2022/10/14 21:02:17;;;;;;;13.45;10.63;;;;;;;13.04;100.00;100781.59;10362930;28;20142;-65
2022/10/14 21:07:19;;;;;;;29.77;11.35;;;;;;;13.09;100.00;100786.38;10379989;28;20454;-64
2022/10/14 21:12:20;;;;;;;15.35;11.05;;;;;;;13.17;100.00;100788.84;10378224;28;20409;-65
2022/10/14 21:17:20;;;;;;;19.27;11.43;;;;;;;13.29;100.00;100794.47;10379081;28;20060;-64
2022/10/14 21:22:20;;;;;;;13.82;11.48;;;;;;;13.43;100.00;100787.03;10379662;28;20050;-63
2022/10/14 21:27:21;;;;;;;19.13;12.65;;;;;;;13.55;100.00;100784.47;10395809;28;20480;-63
2022/10/14 21:32:21;;;;;;;23.10;14.45;;;;;;;13.60;100.00;100781.94;10381865;28;20061;-66
2022/10/14 21:37:22;;;;;;;20.92;14.50;;;;;;;13.62;100.00;100780.63;10380561;28;20041;-65
2022/10/14 21:42:22;;;;;;;26.15;14.80;;;;;;;13.63;100.00;100771.44;10380115;28;20449;-64
2022/10/14 21:47:23;;;;;;;31.02;15.30;;;;;;;13.66;100.00;100762.81;10379240;28;20084;-64
2022/10/14 21:52:23;;;;;;;22.83;14.90;;;;;;;13.61;100.00;100759.09;10378669;28;20041;-63
2022/10/14 21:57:24;;;;;;;17.70;13.88;;;;;;;13.40;100.00;100752.13;10377546;28;20505;-64
2022/10/14 22:02:24;;;;;;;22.30;13.70;;;;;;;13.28;100.00;100751.19;10378149;28;20041;-64
2022/10/14 22:07:24;;;;;;;24.80;15.02;;;;;;;13.21;100.00;100749.31;10378478;28;20034;-64
2022/10/14 22:12:27;;;;;;;20.52;15.57;;;;;;;13.16;100.00;100751.00;10375991;28;20116;-64
2022/10/14 22:17:27;;;;;;;28.45;16.58;;;;;;;13.07;100.00;100744.16;10377991;28;20038;-64
2022/10/14 22:22:28;;;;;;;26.75;16.33;;;;;;;13.03;100.00;100757.34;10377446;28;20030;-64
2022/10/14 22:27:28;;;;;;;25.42;19.15;;;;;;;13.01;100.00;100754.81;10376330;28;20390;-63
2022/10/14 22:32:29;;;;;;;37.65;19.52;;;;;;;13.06;100.00;100747.94;10376808;28;20034;-64
2022/10/14 22:37:30;;;;;;;34.08;18.88;;;;;;;13.07;100.00;100734.09;10376671;28;20083;-64